Time;durP1;ratioP1;P1;durP2;ratioP2;P2;SDS_P1;SDS_P2;PMS_P1;PMS_P2;Temp;Humidity;BMP_temperature;BMP_pressure;BME280_temperature;BME280_humidity;BME280_pressure;Samples;Min_cycle;Max_cycle;Signal;HPM_P1;HPM_P2
2022/03/26 00:01:37;;;;;;;80.33;39.80;;;9.50;27.60;;;;;;4974742;28;20435;-73
2022/03/26 00:04:02;;;;;;;83.30;40.90;;;9.20;28.40;;;;;;4979012;28;20404;-74
2022/03/26 00:06:28;;;;;;;91.50;41.40;;;8.80;30.00;;;;;;4974764;28;20491;-73
2022/03/26 00:08:54;;;;;;;83.43;39.70;;;8.50;31.40;;;;;;4977444;28;20816;-72
2022/03/26 00:11:20;;;;;;;80.97;40.60;;;8.30;32.70;;;;;;4976483;28;20412;-73
2022/03/26 00:13:45;;;;;;;85.17;40.03;;;8.20;33.10;;;;;;4974016;28;20580;-73
2022/03/26 00:16:11;;;;;;;81.70;40.30;;;8.30;33.40;;;;;;4974061;28;20787;-74
2022/03/26 00:18:38;;;;;;;81.03;38.70;;;8.70;31.60;;;;;;4974558;28;20402;-71
2022/03/26 00:21:04;;;;;;;82.03;40.92;;;8.50;31.80;;;;;;4977276;28;20490;-74
2022/03/26 00:23:29;;;;;;;83.50;40.78;;;8.30;32.90;;;;;;4972976;28;20438;-72
2022/03/26 00:25:58;;;;;;;79.65;39.33;;;8.10;34.00;;;;;;4971607;28;20404;-73
2022/03/26 00:28:24;;;;;;;82.70;42.40;;;8.10;34.30;;;;;;4973106;28;20538;-73
2022/03/26 00:30:49;;;;;;;82.72;39.97;;;8.30;34.30;;;;;;4971983;28;20518;-73
2022/03/26 00:33:15;;;;;;;78.93;40.50;;;8.60;32.60;;;;;;4972143;28;20416;-73
2022/03/26 00:35:40;;;;;;;81.50;39.97;;;8.70;32.00;;;;;;4972282;28;20408;-73
2022/03/26 00:38:06;;;;;;;85.47;41.50;;;8.80;31.20;;;;;;4972911;28;20404;-73
2022/03/26 00:40:31;;;;;;;81.78;40.70;;;9.00;30.70;;;;;;4973312;28;20396;-72
2022/03/26 00:42:58;;;;;;;79.00;39.95;;;8.90;30.70;;;;;;4968203;28;20424;-73
2022/03/26 00:45:24;;;;;;;88.03;42.10;;;8.60;31.60;;;;;;4955714;28;20400;-72
2022/03/26 00:47:49;;;;;;;83.82;41.33;;;8.20;33.40;;;;;;4971937;28;20862;-74
2022/03/26 00:50:15;;;;;;;85.07;41.47;;;8.00;35.20;;;;;;4968105;28;20440;-74
2022/03/26 00:52:41;;;;;;;86.10;41.33;;;8.30;34.00;;;;;;4971603;28;20453;-73
2022/03/26 00:55:07;;;;;;;84.63;41.70;;;8.50;33.00;;;;;;4971319;28;20392;-72
2022/03/26 00:57:33;;;;;;;88.30;41.13;;;8.60;32.50;;;;;;4972527;28;20484;-74
2022/03/26 00:59:58;;;;;;;85.40;41.70;;;8.60;32.30;;;;;;4971007;28;20795;-74
2022/03/26 01:02:24;;;;;;;83.15;42.33;;;8.50;32.50;;;;;;4970990;28;20435;-72
2022/03/26 01:04:50;;;;;;;82.43;41.78;;;8.20;33.80;;;;;;4971652;28;20408;-73
2022/03/26 01:07:16;;;;;;;84.05;41.63;;;8.00;35.10;;;;;;4966084;28;20948;-74
2022/03/26 01:09:41;;;;;;;86.70;43.90;;;7.70;36.10;;;;;;4972149;28;20420;-74
2022/03/26 01:12:08;;;;;;;90.78;42.28;;;7.60;37.10;;;;;;4976495;28;20412;-74
2022/03/26 01:14:33;;;;;;;85.85;43.72;;;7.40;38.40;;;;;;4980103;28;20833;-73
2022/03/26 01:17:00;;;;;;;86.80;42.45;;;7.40;39.00;;;;;;4976192;28;20420;-75
2022/03/26 01:19:26;;;;;;;87.15;41.83;;;8.10;35.80;;;;;;4957879;28;20407;-73
2022/03/26 01:21:51;;;;;;;89.75;43.75;;;8.30;34.40;;;;;;4974156;28;20723;-72
2022/03/26 01:24:17;;;;;;;87.85;44.15;;;8.10;35.00;;;;;;4975213;28;20418;-72
2022/03/26 01:26:43;;;;;;;81.75;42.95;;;7.70;36.60;;;;;;4973990;28;20458;-74
2022/03/26 01:29:09;;;;;;;88.45;43.97;;;7.50;38.30;;;;;;4975022;28;20420;-73
2022/03/26 01:31:35;;;;;;;84.90;43.63;;;7.70;37.70;;;;;;4975844;28;20411;-73
2022/03/26 01:34:01;;;;;;;85.90;44.90;;;7.80;36.70;;;;;;4975491;28;20499;-71
2022/03/26 01:36:28;;;;;;;88.93;43.60;;;7.50;38.10;;;;;;4957570;28;20458;-73
2022/03/26 01:38:53;;;;;;;91.03;43.85;;;7.70;38.00;;;;;;4975230;28;20843;-74
2022/03/26 01:41:19;;;;;;;96.30;44.33;;;7.60;37.70;;;;;;4975020;28;20491;-72
2022/03/26 01:43:46;;;;;;;93.00;45.45;;;7.30;39.10;;;;;;4973633;28;20781;-72
2022/03/26 01:46:12;;;;;;;92.75;44.88;;;7.20;40.00;;;;;;4972719;28;20404;-74
2022/03/26 01:48:39;;;;;;;92.23;43.70;;;7.30;40.40;;;;;;4956066;28;20427;-72
2022/03/26 01:51:15;;;;;;;93.75;44.47;;;7.30;39.90;;;;;;4974077;28;20381;-72
2022/03/26 01:53:47;;;;;;;94.25;46.28;;;7.20;40.40;;;;;;4974580;28;20475;-72
2022/03/26 01:56:13;;;;;;;94.60;46.03;;;7.20;40.40;;;;;;4974521;28;20407;-74
2022/03/26 01:58:40;;;;;;;91.70;45.73;;;7.00;41.30;;;;;;4956676;28;20514;-72
2022/03/26 02:01:05;;;;;;;85.80;44.58;;;7.00;41.60;;;;;;4973553;28;20418;-72
2022/03/26 02:03:31;;;;;;;93.93;45.80;;;7.30;40.40;;;;;;4974592;28;20404;-73
2022/03/26 02:05:57;;;;;;;95.15;43.92;;;7.40;39.20;;;;;;4956628;28;20408;-72
2022/03/26 02:08:24;;;;;;;85.22;44.13;;;7.60;38.10;;;;;;4974259;28;20846;-72
2022/03/26 02:10:50;;;;;;;99.68;45.15;;;7.80;37.40;;;;;;4974324;28;20412;-71
2022/03/26 02:13:16;;;;;;;92.75;44.20;;;7.70;37.50;;;;;;4957060;28;20400;-72
2022/03/26 02:15:42;;;;;;;96.35;46.55;;;7.70;37.80;;;;;;4956684;28;20416;-73
2022/03/26 02:18:09;;;;;;;89.68;44.75;;;7.60;38.30;;;;;;4974000;28;20404;-72
2022/03/26 02:20:35;;;;;;;93.35;46.65;;;7.50;38.90;;;;;;4974083;28;20416;-73
2022/03/26 02:23:01;;;;;;;91.57;46.73;;;7.20;40.30;;;;;;4986708;28;20412;-73
2022/03/26 02:25:27;;;;;;;89.03;44.35;;;6.90;42.30;;;;;;4990777;28;20403;-74
2022/03/26 02:27:53;;;;;;;93.18;45.58;;;6.90;43.40;;;;;;4988632;28;20423;-74
2022/03/26 02:30:20;;;;;;;97.22;46.05;;;7.00;43.20;;;;;;4980171;28;20423;-74
2022/03/26 02:32:46;;;;;;;90.47;45.95;;;7.20;41.80;;;;;;4957163;28;20967;-72
2022/03/26 02:35:11;;;;;;;92.57;45.63;;;7.40;40.30;;;;;;4974634;28;20458;-73
2022/03/26 02:37:37;;;;;;;99.23;47.00;;;7.20;41.30;;;;;;4974533;28;20546;-74
2022/03/26 02:40:06;;;;;;;90.47;44.87;;;7.00;42.00;;;;;;4972896;28;20427;-73
2022/03/26 02:42:33;;;;;;;101.53;47.23;;;6.90;43.10;;;;;;4981000;28;20427;-71
2022/03/26 02:44:59;;;;;;;97.93;47.22;;;6.70;45.00;;;;;;4984675;28;20407;-72
2022/03/26 02:47:25;;;;;;;93.57;46.10;;;6.60;45.70;;;;;;4957072;28;20916;-72
2022/03/26 02:49:51;;;;;;;89.17;45.70;;;6.70;45.30;;;;;;4971759;28;20412;-73
2022/03/26 02:52:16;;;;;;;89.70;44.07;;;7.00;43.90;;;;;;4972773;28;20455;-73
2022/03/26 02:54:42;;;;;;;98.83;45.57;;;7.40;41.50;;;;;;4973599;28;20488;-72
2022/03/26 02:57:08;;;;;;;94.93;46.10;;;7.50;40.30;;;;;;4974172;28;20476;-72
2022/03/26 02:59:34;;;;;;;98.25;47.15;;;7.40;40.30;;;;;;4973464;28;20404;-74
2022/03/26 03:01:59;;;;;;;95.30;45.60;;;7.20;41.60;;;;;;4974782;28;20795;-73
2022/03/26 03:04:25;;;;;;;93.10;45.25;;;6.90;42.80;;;;;;4977662;28;20412;-72
2022/03/26 03:06:52;;;;;;;92.18;45.88;;;6.70;44.70;;;;;;4978106;28;20416;-73
2022/03/26 03:09:18;;;;;;;95.07;46.92;;;6.50;47.00;;;;;;4975399;28;20947;-73
2022/03/26 03:11:43;;;;;;;107.20;48.97;;;6.50;47.80;;;;;;4983117;28;20416;-73
2022/03/26 03:14:10;;;;;;;99.27;46.00;;;6.70;46.50;;;;;;4977116;28;20406;-73
2022/03/26 03:16:36;;;;;;;90.45;46.10;;;6.80;44.30;;;;;;4973444;28;20400;-74
2022/03/26 03:19:03;;;;;;;89.67;45.30;;;6.70;45.70;;;;;;4972768;28;20415;-72
2022/03/26 03:21:29;;;;;;;93.00;46.30;;;6.60;46.80;;;;;;4971824;28;20396;-73
2022/03/26 03:23:54;;;;;;;97.55;46.83;;;6.90;44.70;;;;;;4973245;28;20972;-72
2022/03/26 03:26:20;;;;;;;101.10;47.13;;;7.00;43.70;;;;;;4973504;28;20503;-73
2022/03/26 03:28:46;;;;;;;105.13;47.00;;;7.10;42.10;;;;;;4972145;28;20415;-73
2022/03/26 03:31:11;;;;;;;102.93;46.58;;;7.20;41.50;;;;;;4972547;28;20419;-74
2022/03/26 03:33:37;;;;;;;101.50;47.27;;;7.30;40.60;;;;;;4973208;28;20404;-74
2022/03/26 03:36:04;;;;;;;96.03;46.67;;;7.30;40.60;;;;;;4972403;28;20406;-73
2022/03/26 03:38:30;;;;;;;107.20;47.28;;;7.30;40.40;;;;;;4973311;28;20890;-73
2022/03/26 03:40:55;;;;;;;96.90;47.35;;;7.20;40.60;;;;;;4954650;28;20462;-74
2022/03/26 03:43:22;;;;;;;98.07;47.90;;;7.10;41.30;;;;;;4955416;28;20508;-72
2022/03/26 03:45:48;;;;;;;95.85;48.05;;;7.00;42.10;;;;;;4972217;28;20400;-73
2022/03/26 03:48:14;;;;;;;98.93;46.83;;;6.90;43.20;;;;;;4970991;28;20479;-74
2022/03/26 03:50:39;;;;;;;101.53;49.28;;;6.60;44.40;;;;;;4972127;28;20490;-72
2022/03/26 03:53:05;;;;;;;98.35;48.67;;;6.40;46.20;;;;;;4972049;28;20408;-73
2022/03/26 03:55:30;;;;;;;91.72;47.20;;;6.10;48.40;;;;;;4975045;28;20420;-73
2022/03/26 03:57:56;;;;;;;103.93;48.40;;;6.00;49.60;;;;;;4984431;28;20432;-72
2022/03/26 04:00:22;;;;;;;106.27;50.70;;;6.00;50.30;;;;;;4985062;28;20408;-78
2022/03/26 04:02:47;;;;;;;106.20;49.87;;;5.90;51.20;;;;;;4956128;28;20423;-76
2022/03/26 04:05:13;;;;;;;105.53;48.17;;;5.80;52.40;;;;;;4973106;28;20444;-75
2022/03/26 04:07:44;;;;;;;112.25;50.13;;;6.00;51.90;;;;;;4955168;28;20419;-76
2022/03/26 04:10:10;;;;;;;106.20;48.40;;;6.50;47.70;;;;;;4973202;28;20898;-76
2022/03/26 04:12:42;;;;;;;101.35;47.67;;;6.80;44.80;;;;;;4973158;28;20458;-77
2022/03/26 04:15:09;;;;;;;98.00;47.47;;;6.90;44.00;;;;;;4972296;28;20400;-77
2022/03/26 04:17:36;;;;;;;106.22;49.22;;;6.80;43.70;;;;;;4972353;28;20413;-76
2022/03/26 04:20:06;;;;;;;103.18;49.63;;;6.70;44.40;;;;;;4972476;28;20412;-76
2022/03/26 04:22:31;;;;;;;100.50;48.55;;;6.40;46.00;;;;;;4973354;28;20423;-76
2022/03/26 04:24:57;;;;;;;105.83;48.40;;;6.50;46.90;;;;;;4974080;28;20416;-77
2022/03/26 04:27:22;;;;;;;101.33;49.17;;;6.60;46.00;;;;;;4986915;28;20423;-77
2022/03/26 04:29:48;;;;;;;108.30;51.70;;;6.50;45.90;;;;;;4985644;28;20416;-77
2022/03/26 04:32:14;;;;;;;115.23;50.80;;;6.20;48.20;;;;;;4972702;28;20440;-76
2022/03/26 04:34:39;;;;;;;102.45;47.72;;;6.00;50.60;;;;;;4954855;28;20600;-77
2022/03/26 04:37:06;;;;;;;108.68;49.83;;;5.80;52.10;;;;;;4971484;28;20905;-77
2022/03/26 04:39:32;;;;;;;116.20;52.40;;;5.80;52.80;;;;;;4972199;28;20454;-76
2022/03/26 04:41:58;;;;;;;118.68;52.00;;;5.70;53.30;;;;;;4968064;28;20427;-79
2022/03/26 04:44:24;;;;;;;100.72;49.75;;;5.60;54.60;;;;;;4972648;28;20400;-75
2022/03/26 04:46:49;;;;;;;104.87;49.23;;;5.50;55.60;;;;;;4970770;28;20830;-74
2022/03/26 04:49:15;;;;;;;109.57;49.80;;;5.60;56.20;;;;;;4971118;28;20462;-74
2022/03/26 04:51:41;;;;;;;102.93;49.90;;;5.90;54.10;;;;;;4971488;28;20897;-74
2022/03/26 04:54:06;;;;;;;101.53;49.60;;;6.10;51.60;;;;;;4972642;28;20419;-74
2022/03/26 04:56:32;;;;;;;105.80;51.13;;;6.10;50.80;;;;;;4971746;28;20407;-74
2022/03/26 04:58:58;;;;;;;100.70;49.17;;;6.30;48.90;;;;;;4972213;28;20404;-74
2022/03/26 05:01:24;;;;;;;108.15;48.58;;;6.30;49.00;;;;;;4972362;28;20411;-73
2022/03/26 05:03:50;;;;;;;105.33;49.90;;;6.00;49.80;;;;;;4972851;28;20407;-72
2022/03/26 05:06:16;;;;;;;109.97;51.33;;;5.80;53.30;;;;;;4971786;28;20431;-75
2022/03/26 05:08:42;;;;;;;108.55;51.47;;;5.70;53.00;;;;;;4954352;28;20495;-72
2022/03/26 05:11:07;;;;;;;109.32;50.47;;;5.60;55.40;;;;;;4973835;28;20460;-73
2022/03/26 05:13:33;;;;;;;103.53;50.05;;;5.80;53.90;;;;;;4973616;28;20405;-72
2022/03/26 05:18:37;;;;;;;111.03;51.63;;;5.40;55.30;;;;;;4968461;28;20924;-72
2022/03/26 05:21:03;;;;;;;104.65;49.67;;;5.40;57.20;;;;;;4968830;28;20559;-72
2022/03/26 05:23:29;;;;;;;103.25;48.28;;;5.30;58.00;;;;;;4970336;28;20811;-72
2022/03/26 05:25:54;;;;;;;117.63;51.08;;;5.40;58.20;;;;;;4968799;28;20412;-72
2022/03/26 05:28:20;;;;;;;106.90;50.03;;;5.60;55.50;;;;;;4956942;28;20429;-72
2022/03/26 05:30:50;;;;;;;99.30;48.40;;;5.50;55.30;;;;;;4956527;28;20497;-72
2022/03/26 05:33:16;;;;;;;104.35;49.80;;;5.50;56.10;;;;;;4955215;28;20410;-72
2022/03/26 05:35:41;;;;;;;103.05;50.15;;;5.40;58.10;;;;;;4952207;28;20406;-71
2022/03/26 05:38:07;;;;;;;100.00;48.97;;;5.40;60.00;;;;;;4951226;28;20797;-70
2022/03/26 05:40:33;;;;;;;95.93;47.07;;;5.50;59.30;;;;;;4951566;28;20814;-70
2022/03/26 05:42:59;;;;;;;99.63;47.67;;;5.60;57.90;;;;;;4949596;28;20408;-71
2022/03/26 05:45:24;;;;;;;102.82;49.10;;;5.60;58.40;;;;;;4956032;28;20406;-70
2022/03/26 05:47:55;;;;;;;107.95;49.05;;;5.50;59.30;;;;;;4957077;28;20758;-71
2022/03/26 05:50:20;;;;;;;105.30;50.33;;;5.40;59.80;;;;;;4959001;28;20413;-70
2022/03/26 05:52:46;;;;;;;103.10;48.97;;;5.50;60.60;;;;;;4939648;28;20404;-70
2022/03/26 05:55:11;;;;;;;98.53;46.30;;;5.60;58.50;;;;;;4957018;28;20422;-71
2022/03/26 05:57:37;;;;;;;96.33;46.07;;;5.80;56.60;;;;;;4953910;28;20882;-71
2022/03/26 06:00:04;;;;;;;91.93;44.40;;;6.10;52.90;;;;;;4955061;28;20406;-76
2022/03/26 06:02:30;;;;;;;84.75;44.17;;;6.30;50.30;;;;;;4955257;28;20933;-71
2022/03/26 06:04:56;;;;;;;95.77;44.77;;;6.40;48.40;;;;;;4954598;28;20410;-72
2022/03/26 06:07:21;;;;;;;88.20;45.30;;;6.50;47.00;;;;;;4960624;28;20420;-72
2022/03/26 06:09:47;;;;;;;103.73;49.37;;;6.60;45.90;;;;;;4954472;28;20426;-72
2022/03/26 06:12:12;;;;;;;100.33;48.50;;;6.50;46.60;;;;;;4955693;28;20402;-72
2022/03/26 06:14:38;;;;;;;95.70;45.97;;;6.60;47.40;;;;;;4954447;28;20420;-73
2022/03/26 06:17:04;;;;;;;101.13;48.90;;;6.60;47.10;;;;;;4954038;28;20424;-71
2022/03/26 06:19:30;;;;;;;91.57;46.50;;;6.40;48.70;;;;;;4953116;28;20490;-71
2022/03/26 06:21:55;;;;;;;99.97;49.43;;;6.30;50.00;;;;;;4953831;28;20497;-71
2022/03/26 06:24:24;;;;;;;91.70;46.10;;;6.30;50.20;;;;;;4954360;28;20944;-70
2022/03/26 06:26:49;;;;;;;103.05;48.42;;;6.30;51.00;;;;;;4953922;28;20417;-71
2022/03/26 06:29:16;;;;;;;97.40;48.30;;;6.40;50.00;;;;;;4952305;28;20418;-72
2022/03/26 06:31:42;;;;;;;89.85;47.13;;;6.40;49.90;;;;;;4953886;28;20409;-72
2022/03/26 06:34:08;;;;;;;101.60;48.50;;;6.50;50.10;;;;;;4954372;28;20474;-73
2022/03/26 06:36:34;;;;;;;96.40;48.03;;;6.70;49.00;;;;;;4954562;28;20413;-71
2022/03/26 06:39:00;;;;;;;95.07;48.45;;;7.20;44.00;;;;;;4959437;28;20433;-71
2022/03/26 06:41:26;;;;;;;102.25;49.17;;;7.40;42.20;;;;;;4954844;28;20456;-72
2022/03/26 06:43:52;;;;;;;98.63;50.67;;;7.80;39.60;;;;;;4937381;29;20768;-72
2022/03/26 06:46:17;;;;;;;97.40;49.60;;;8.00;38.10;;;;;;4954846;28;20414;-72
2022/03/26 06:48:43;;;;;;;105.07;50.90;;;8.10;37.60;;;;;;4953837;28;20418;-74
2022/03/26 06:51:09;;;;;;;106.17;50.10;;;8.20;37.10;;;;;;4947290;29;20867;-73
2022/03/26 06:53:36;;;;;;;100.57;49.87;;;8.30;36.30;;;;;;4952795;28;20424;-71
2022/03/26 06:56:04;;;;;;;106.53;51.75;;;8.30;36.00;;;;;;4936701;29;20464;-71
2022/03/26 06:58:30;;;;;;;105.82;50.88;;;8.40;36.00;;;;;;4954334;28;20494;-71
2022/03/26 07:00:58;;;;;;;112.25;52.83;;;8.30;36.30;;;;;;4953774;28;20496;-72
2022/03/26 07:03:24;;;;;;;107.75;52.47;;;8.40;36.70;;;;;;4936081;29;20428;-72
2022/03/26 07:05:50;;;;;;;95.45;50.20;;;8.50;36.50;;;;;;4953871;28;20426;-72
2022/03/26 07:08:16;;;;;;;103.95;52.13;;;8.70;35.60;;;;;;4953511;28;20417;-71
2022/03/26 07:10:45;;;;;;;112.63;52.60;;;8.90;34.90;;;;;;4932266;28;20457;-72
2022/03/26 07:13:11;;;;;;;104.93;51.45;;;9.10;34.40;;;;;;4954394;28;20855;-71
2022/03/26 07:15:36;;;;;;;105.72;50.50;;;9.30;33.40;;;;;;4951531;28;20460;-70
2022/03/26 07:18:02;;;;;;;107.73;52.60;;;9.30;33.10;;;;;;4952502;28;20501;-73
2022/03/26 07:20:28;;;;;;;114.43;52.00;;;9.40;33.20;;;;;;4953212;28;20421;-71
2022/03/26 07:22:54;;;;;;;102.10;50.50;;;9.50;32.70;;;;;;4951908;28;20422;-72
2022/03/26 07:25:19;;;;;;;103.47;50.42;;;9.60;32.00;;;;;;4957701;28;20419;-73
2022/03/26 07:27:45;;;;;;;110.15;51.72;;;9.60;31.70;;;;;;4953053;28;20734;-72
2022/03/26 07:30:11;;;;;;;100.32;50.10;;;9.80;31.50;;;;;;4953538;28;21016;-72
2022/03/26 07:32:37;;;;;;;101.03;50.80;;;9.80;31.20;;;;;;4953873;28;20460;-71
2022/03/26 07:35:03;;;;;;;101.53;50.00;;;10.10;30.20;;;;;;4931798;29;20409;-73
2022/03/26 07:37:29;;;;;;;101.73;50.80;;;10.00;30.20;;;;;;4952598;28;20962;-72
2022/03/26 07:39:54;;;;;;;109.20;51.50;;;10.10;31.20;;;;;;4953225;29;20485;-75
2022/03/26 07:42:20;;;;;;;108.60;52.50;;;10.10;30.10;;;;;;4954049;28;20413;-74
2022/03/26 07:44:45;;;;;;;109.13;51.30;;;10.10;30.00;;;;;;4952899;28;21543;-74
2022/03/26 07:47:11;;;;;;;119.97;50.00;;;10.20;29.80;;;;;;4952234;28;20422;-74
2022/03/26 07:49:37;;;;;;;103.37;49.03;;;10.30;30.00;;;;;;4956289;28;20449;-75
2022/03/26 07:52:03;;;;;;;108.07;50.73;;;10.40;29.70;;;;;;4954285;28;20534;-74
2022/03/26 07:54:29;;;;;;;107.05;51.20;;;10.50;28.50;;;;;;4953384;28;20480;-73
2022/03/26 07:56:55;;;;;;;98.05;48.80;;;10.60;27.70;;;;;;4951283;28;20410;-74
2022/03/26 07:59:20;;;;;;;105.90;49.95;;;10.70;27.40;;;;;;4953396;28;20416;-72
2022/03/26 08:01:46;;;;;;;101.77;48.43;;;11.20;26.10;;;;;;4948906;28;20422;-72
2022/03/26 08:04:12;;;;;;;95.80;47.47;;;11.70;24.20;;;;;;4945118;29;20411;-74
2022/03/26 08:06:38;;;;;;;103.35;47.67;;;11.90;23.30;;;;;;4965268;28;20441;-73
2022/03/26 08:09:03;;;;;;;100.67;48.43;;;12.00;22.70;;;;;;4954749;28;20422;-70
2022/03/26 08:11:29;;;;;;;106.63;48.90;;;12.10;22.30;;;;;;4953904;28;20421;-71
2022/03/26 08:13:54;;;;;;;96.97;47.30;;;12.30;22.00;;;;;;4961149;28;20890;-72
2022/03/26 08:16:20;;;;;;;96.35;45.60;;;12.30;21.30;;;;;;4952446;28;20420;-73
2022/03/26 08:18:46;;;;;;;107.68;49.78;;;12.50;21.10;;;;;;4935432;28;20429;-73
2022/03/26 08:21:12;;;;;;;91.90;45.88;;;12.50;21.00;;;;;;4952095;28;20464;-73
2022/03/26 08:23:38;;;;;;;105.07;48.03;;;12.70;20.60;;;;;;4950971;28;20423;-73
2022/03/26 08:26:19;;;;;;;101.28;46.08;;;12.80;19.80;;;;;;4948047;28;20496;-73
2022/03/26 08:28:45;;;;;;;94.75;47.40;;;12.90;19.80;;;;;;4951738;28;20919;-73
2022/03/26 08:31:13;;;;;;;96.37;48.67;;;12.90;20.00;;;;;;4951527;28;20449;-72
2022/03/26 08:33:41;;;;;;;101.93;48.60;;;12.80;20.20;;;;;;4949987;28;20417;-70
2022/03/26 08:36:07;;;;;;;84.45;44.13;;;12.90;20.00;;;;;;4950398;28;20512;-70
2022/03/26 08:38:33;;;;;;;83.33;46.60;;;13.20;18.80;;;;;;4952168;28;20405;-71
2022/03/26 08:40:58;;;;;;;93.60;45.73;;;13.30;19.00;;;;;;4932969;28;20420;-70
2022/03/26 08:43:24;;;;;;;92.63;45.00;;;13.50;18.60;;;;;;4953287;28;20421;-75
2022/03/26 08:45:50;;;;;;;109.43;47.70;;;13.60;18.30;;;;;;4955110;28;20410;-74
2022/03/26 08:48:15;;;;;;;95.78;45.45;;;13.70;18.90;;;;;;4953310;28;20406;-72
2022/03/26 08:50:42;;;;;;;92.20;44.50;;;13.70;18.60;;;;;;4950401;28;20410;-73
2022/03/26 08:53:08;;;;;;;97.63;45.33;;;13.80;18.40;;;;;;4957676;28;20421;-71
2022/03/26 08:55:34;;;;;;;95.78;46.15;;;13.90;18.20;;;;;;4955276;28;20406;-73
2022/03/26 08:58:00;;;;;;;91.85;42.70;;;14.00;18.30;;;;;;4955993;28;20424;-73
2022/03/26 09:00:27;;;;;;;86.18;43.67;;;14.10;18.30;;;;;;4959282;28;21219;-74
2022/03/26 09:02:53;;;;;;;83.65;42.47;;;14.30;17.90;;;;;;4937817;29;20417;-73
2022/03/26 09:05:19;;;;;;;86.33;42.97;;;14.40;17.70;;;;;;4955591;28;20409;-74
2022/03/26 09:07:44;;;;;;;93.77;42.93;;;14.60;17.70;;;;;;4954449;28;20838;-75
2022/03/26 09:10:10;;;;;;;90.17;43.40;;;14.70;17.30;;;;;;4955176;28;20421;-72
2022/03/26 09:12:36;;;;;;;83.97;43.33;;;14.80;17.10;;;;;;4947115;28;20840;-73
2022/03/26 09:15:03;;;;;;;87.78;43.45;;;14.90;17.10;;;;;;4949223;28;20425;-72
2022/03/26 09:17:28;;;;;;;83.55;42.33;;;14.90;16.80;;;;;;4955589;28;20420;-72
2022/03/26 09:19:54;;;;;;;81.77;39.50;;;15.00;16.70;;;;;;4951424;28;20508;-72
2022/03/26 09:22:20;;;;;;;85.07;40.63;;;15.10;16.30;;;;;;4950153;28;20454;-74
2022/03/26 09:24:45;;;;;;;81.83;40.73;;;15.10;16.50;;;;;;4950652;28;20460;-71
2022/03/26 09:27:11;;;;;;;83.17;40.60;;;15.20;15.90;;;;;;4949208;28;20437;-71
2022/03/26 09:29:37;;;;;;;81.28;41.75;;;15.20;16.30;;;;;;4949921;28;20429;-74
2022/03/26 09:32:03;;;;;;;88.38;41.33;;;15.30;15.60;;;;;;4950072;28;20492;-71
2022/03/26 09:34:29;;;;;;;83.70;40.30;;;15.40;15.40;;;;;;4956686;28;20414;-75
2022/03/26 09:36:55;;;;;;;76.13;38.40;;;15.50;15.40;;;;;;4937724;29;20448;-71
2022/03/26 09:39:21;;;;;;;82.88;38.97;;;15.70;15.00;;;;;;4956703;28;20798;-71
2022/03/26 09:41:47;;;;;;;73.65;38.88;;;15.80;14.50;;;;;;4943536;28;20418;-77
2022/03/26 09:44:13;;;;;;;87.30;42.03;;;15.90;14.50;;;;;;4965049;28;20540;-76
2022/03/26 09:46:39;;;;;;;76.13;39.75;;;15.90;14.40;;;;;;4964316;28;20429;-76
2022/03/26 09:49:05;;;;;;;80.17;41.07;;;15.80;14.60;;;;;;4957046;28;20414;-75
2022/03/26 09:51:32;;;;;;;75.30;40.25;;;15.90;14.40;;;;;;4956729;28;20468;-74
2022/03/26 09:53:58;;;;;;;86.88;40.83;;;16.20;13.30;;;;;;4956407;28;20890;-72
2022/03/26 09:56:25;;;;;;;84.65;40.47;;;16.20;12.90;;;;;;4955764;28;20409;-70
2022/03/26 09:58:52;;;;;;;72.25;36.35;;;16.20;12.50;;;;;;4954827;28;20401;-72
2022/03/26 10:01:22;;;;;;;70.43;36.78;;;16.20;11.50;;;;;;4954195;28;20396;-69
2022/03/26 10:04:06;;;;;;;79.00;35.72;;;16.20;12.30;;;;;;4955980;28;20472;-70
2022/03/26 10:06:32;;;;;;;71.72;34.95;;;16.30;11.50;;;;;;4954229;28;20759;-70
2022/03/26 10:08:57;;;;;;;76.27;38.40;;;16.20;11.10;;;;;;4954382;28;20473;-72
2022/03/26 10:11:23;;;;;;;73.95;37.53;;;16.20;12.20;;;;;;4955031;28;20414;-70
2022/03/26 10:13:48;;;;;;;76.60;36.95;;;16.50;12.30;;;;;;4954054;28;20487;-71
2022/03/26 10:16:15;;;;;;;68.10;34.60;;;16.70;11.40;;;;;;4955964;28;20406;-71
2022/03/26 10:18:47;;;;;;;69.85;33.95;;;16.70;10.10;;;;;;4952177;28;20457;-70
2022/03/26 10:21:18;;;;;;;72.00;34.83;;;16.70;10.70;;;;;;4947973;28;20422;-70
2022/03/26 10:23:46;;;;;;;70.07;35.40;;;16.80;10.90;;;;;;4952946;28;20422;-69
2022/03/26 10:26:13;;;;;;;69.68;36.03;;;16.80;11.20;;;;;;4944599;28;20415;-70
2022/03/26 10:28:42;;;;;;;65.35;33.47;;;16.70;11.10;;;;;;4953343;28;20448;-75
2022/03/26 10:34:23;;;;;;;67.73;32.57;;;16.90;11.30;;;;;;4951750;28;20807;-71
2022/03/26 10:36:56;;;;;;;57.78;28.60;;;16.80;11.40;;;;;;4954738;28;20410;-71
2022/03/26 10:39:25;;;;;;;58.13;28.92;;;16.60;10.50;;;;;;4936910;29;20441;-72
2022/03/26 10:41:55;;;;;;;59.73;28.13;;;16.50;10.80;;;;;;4951767;28;20425;-70
2022/03/26 10:44:28;;;;;;;59.15;28.58;;;16.40;10.00;;;;;;4951876;28;20417;-71
2022/03/26 10:46:59;;;;;;;66.05;33.47;;;16.40;10.40;;;;;;4952432;28;20424;-70
2022/03/26 10:49:30;;;;;;;65.30;34.08;;;16.50;11.60;;;;;;4953747;28;20919;-71
2022/03/26 10:52:10;;;;;;;62.75;29.23;;;16.60;11.50;;;;;;4953939;28;20424;-71
2022/03/26 10:54:36;;;;;;;63.25;30.38;;;16.60;10.80;;;;;;4935587;29;20410;-72
2022/03/26 10:57:03;;;;;;;57.97;28.70;;;16.70;11.00;;;;;;4950960;28;20973;-72
2022/03/26 10:59:30;;;;;;;40.05;21.30;;;16.80;11.00;;;;;;4955032;28;20428;-72
2022/03/26 11:01:58;;;;;;;46.10;21.73;;;16.80;10.70;;;;;;4951244;28;20512;-72
2022/03/26 11:04:28;;;;;;;36.30;18.85;;;17.00;11.00;;;;;;4954107;28;20448;-73
2022/03/26 11:06:56;;;;;;;47.47;23.20;;;17.00;9.80;;;;;;4955852;28;20591;-72
2022/03/26 11:09:22;;;;;;;48.03;23.42;;;17.10;10.60;;;;;;4954668;29;20806;-71
2022/03/26 11:11:51;;;;;;;45.50;20.48;;;17.10;10.90;;;;;;4946106;28;20413;-70
2022/03/26 11:14:33;;;;;;;46.45;20.75;;;17.10;9.60;;;;;;4952883;28;20899;-73
2022/03/26 11:17:17;;;;;;;38.35;21.10;;;17.10;9.60;;;;;;4969007;23;20762;-78
2022/03/26 11:20:09;;;;;;;42.45;21.40;;;17.10;10.30;;;;;;4986585;28;20415;-77
2022/03/26 11:22:56;;;;;;;35.58;18.35;;;17.30;10.60;;;;;;4970851;28;20398;-75
2022/03/26 11:25:29;;;;;;;29.08;16.38;;;17.30;9.40;;;;;;4978703;28;20417;-77
2022/03/26 11:28:18;;;;;;;38.22;19.20;;;17.50;8.70;;;;;;4968446;28;20451;-77
2022/03/26 11:30:49;;;;;;;32.58;16.15;;;17.60;8.90;;;;;;4970419;28;20447;-78
2022/03/26 11:33:15;;;;;;;39.13;17.10;;;17.70;7.90;;;;;;4973380;28;20428;-76
2022/03/26 11:36:03;;;;;;;27.77;15.73;;;17.60;7.80;;;;;;4957563;28;20392;-77
2022/03/26 11:38:30;;;;;;;27.30;15.77;;;17.60;7.70;;;;;;4967165;28;20412;-79
2022/03/26 11:41:05;;;;;;;34.83;17.07;;;17.60;8.10;;;;;;4956026;28;20416;-78
2022/03/26 11:43:42;;;;;;;32.35;17.30;;;17.60;8.40;;;;;;4965262;28;20425;-78
2022/03/26 11:51:56;;;;;;;30.88;17.50;;;17.60;10.60;;;;;;4967307;28;20413;-75
2022/03/26 11:54:22;;;;;;;34.88;19.95;;;17.40;10.60;;;;;;4971443;28;20408;-78
2022/03/26 11:57:14;;;;;;;34.88;18.50;;;17.40;11.50;;;;;;4972996;28;20438;-79
2022/03/26 11:59:41;;;;;;;38.90;18.50;;;17.40;11.60;;;;;;4972275;28;20408;-78
2022/03/26 12:02:23;;;;;;;28.92;15.90;;;17.40;12.10;;;;;;4978332;28;20402;-79
2022/03/26 12:06:35;;;;;;;27.42;16.13;;;17.60;11.80;;;;;;4960533;28;20415;-78
2022/03/26 12:07:46;;;;;;;23.35;13.85;;;17.80;11.30;;;;;;4976161;28;20410;-79
2022/03/26 12:10:11;;;;;;;27.63;15.25;;;18.00;11.50;;;;;;4951423;28;20447;-79
2022/03/26 12:12:49;;;;;;;26.35;13.85;;;18.10;11.30;;;;;;4975403;28;20412;-79
2022/03/26 12:15:15;;;;;;;23.48;13.10;;;18.10;11.00;;;;;;4973581;28;20396;-79
2022/03/26 12:17:44;;;;;;;27.27;13.87;;;18.20;11.40;;;;;;4979048;28;20419;-78
2022/03/26 12:20:34;;;;;;;24.77;12.23;;;18.30;9.90;;;;;;4972021;28;20901;-79
2022/03/26 12:23:06;;;;;;;20.25;11.02;;;18.40;10.20;;;;;;4971731;28;20408;-78
2022/03/26 12:25:46;;;;;;;18.02;9.85;;;18.50;9.10;;;;;;4973254;28;20412;-78
2022/03/26 12:28:16;;;;;;;17.25;9.10;;;18.10;9.30;;;;;;4979224;28;20431;-78
2022/03/26 12:30:51;;;;;;;16.20;8.48;;;18.10;9.70;;;;;;4957445;28;20932;-77
2022/03/26 12:33:18;;;;;;;18.45;10.10;;;18.30;10.10;;;;;;4969375;28;20904;-76
2022/03/26 12:35:48;;;;;;;24.98;11.18;;;18.50;9.60;;;;;;4956635;28;20532;-79
2022/03/26 12:38:15;;;;;;;18.45;11.38;;;18.60;8.60;;;;;;4974084;28;20998;-77
2022/03/26 12:40:49;;;;;;;17.02;10.15;;;18.60;9.40;;;;;;4971828;28;20413;-78
2022/03/26 12:43:14;;;;;;;15.88;10.13;;;18.50;9.90;;;;;;4973779;28;20401;-78